sensor_id;sensor_type;location;lat;lon;timestamp;P1;durP1;ratioP1;P2;durP2;ratioP2
41677;SDS011;27364;49.026;8.712;2023-02-15T00:01:54;41.33;;;27.52;;
41677;SDS011;27364;49.026;8.712;2023-02-15T00:04:22;46.60;;;29.77;;
41677;SDS011;27364;49.026;8.712;2023-02-15T00:09:14;45.38;;;29.55;;
41677;SDS011;27364;49.026;8.712;2023-02-15T00:11:40;49.25;;;30.80;;
41677;SDS011;27364;49.026;8.712;2023-02-15T00:14:23;53.47;;;31.42;;
41677;SDS011;27364;49.026;8.712;2023-02-15T00:16:50;45.97;;;30.48;;
41677;SDS011;27364;49.026;8.712;2023-02-15T00:19:17;57.28;;;33.72;;
41677;SDS011;27364;49.026;8.712;2023-02-15T00:21:46;49.90;;;32.28;;
41677;SDS011;27364;49.026;8.712;2023-02-15T00:24:13;64.82;;;33.70;;
41677;SDS011;27364;49.026;8.712;2023-02-15T00:26:40;61.53;;;35.88;;
41677;SDS011;27364;49.026;8.712;2023-02-15T00:29:08;54.17;;;34.57;;
41677;SDS011;27364;49.026;8.712;2023-02-15T00:31:35;64.72;;;35.00;;
41677;SDS011;27364;49.026;8.712;2023-02-15T00:34:05;59.50;;;36.22;;
41677;SDS011;27364;49.026;8.712;2023-02-15T00:36:38;68.17;;;36.83;;
41677;SDS011;27364;49.026;8.712;2023-02-15T00:39:04;76.65;;;36.13;;
41677;SDS011;27364;49.026;8.712;2023-02-15T00:41:30;77.10;;;37.35;;
41677;SDS011;27364;49.026;8.712;2023-02-15T00:43:56;64.95;;;36.58;;
41677;SDS011;27364;49.026;8.712;2023-02-15T00:46:22;87.10;;;39.13;;
41677;SDS011;27364;49.026;8.712;2023-02-15T00:48:47;79.82;;;37.78;;
41677;SDS011;27364;49.026;8.712;2023-02-15T00:51:13;79.00;;;38.20;;
41677;SDS011;27364;49.026;8.712;2023-02-15T00:53:38;72.10;;;38.88;;
41677;SDS011;27364;49.026;8.712;2023-02-15T00:56:04;78.10;;;39.15;;
41677;SDS011;27364;49.026;8.712;2023-02-15T00:58:30;92.70;;;39.08;;
41677;SDS011;27364;49.026;8.712;2023-02-15T01:01:01;84.82;;;39.20;;
41677;SDS011;27364;49.026;8.712;2023-02-15T01:03:31;73.10;;;40.38;;
41677;SDS011;27364;49.026;8.712;2023-02-15T01:05:57;79.40;;;39.35;;
41677;SDS011;27364;49.026;8.712;2023-02-15T01:08:23;90.47;;;39.63;;
41677;SDS011;27364;49.026;8.712;2023-02-15T01:10:48;73.00;;;38.35;;
41677;SDS011;27364;49.026;8.712;2023-02-15T01:13:15;83.50;;;39.33;;
41677;SDS011;27364;49.026;8.712;2023-02-15T01:15:41;71.07;;;37.33;;
41677;SDS011;27364;49.026;8.712;2023-02-15T01:18:07;69.28;;;36.45;;
41677;SDS011;27364;49.026;8.712;2023-02-15T01:20:34;76.88;;;36.75;;
41677;SDS011;27364;49.026;8.712;2023-02-15T01:23:01;73.90;;;37.28;;
41677;SDS011;27364;49.026;8.712;2023-02-15T01:25:27;88.32;;;40.17;;
41677;SDS011;27364;49.026;8.712;2023-02-15T01:27:53;88.60;;;39.33;;
41677;SDS011;27364;49.026;8.712;2023-02-15T01:30:18;87.90;;;39.78;;
41677;SDS011;27364;49.026;8.712;2023-02-15T01:32:44;87.80;;;40.95;;
41677;SDS011;27364;49.026;8.712;2023-02-15T01:35:10;89.22;;;41.83;;
41677;SDS011;27364;49.026;8.712;2023-02-15T01:37:36;94.43;;;42.05;;
41677;SDS011;27364;49.026;8.712;2023-02-15T01:40:02;123.28;;;43.25;;
41677;SDS011;27364;49.026;8.712;2023-02-15T01:42:30;118.78;;;43.05;;
41677;SDS011;27364;49.026;8.712;2023-02-15T01:44:57;111.35;;;42.85;;
41677;SDS011;27364;49.026;8.712;2023-02-15T01:48:03;109.90;;;43.05;;
41677;SDS011;27364;49.026;8.712;2023-02-15T01:55:47;114.72;;;41.90;;
41677;SDS011;27364;49.026;8.712;2023-02-15T01:58:27;97.75;;;41.78;;
41677;SDS011;27364;49.026;8.712;2023-02-15T02:00:57;135.90;;;43.05;;
41677;SDS011;27364;49.026;8.712;2023-02-15T02:06:08;117.28;;;43.40;;
41677;SDS011;27364;49.026;8.712;2023-02-15T02:08:34;94.80;;;41.13;;
41677;SDS011;27364;49.026;8.712;2023-02-15T02:11:00;93.55;;;42.33;;
41677;SDS011;27364;49.026;8.712;2023-02-15T02:13:26;81.40;;;40.33;;
41677;SDS011;27364;49.026;8.712;2023-02-15T02:18:38;117.80;;;43.88;;
41677;SDS011;27364;49.026;8.712;2023-02-15T02:21:14;93.72;;;43.08;;
41677;SDS011;27364;49.026;8.712;2023-02-15T02:38:52;37.78;;;25.48;;
41677;SDS011;27364;49.026;8.712;2023-02-15T02:44:19;52.25;;;24.73;;
41677;SDS011;27364;49.026;8.712;2023-02-15T02:46:54;41.25;;;24.63;;
41677;SDS011;27364;49.026;8.712;2023-02-15T02:49:43;43.25;;;23.63;;
41677;SDS011;27364;49.026;8.712;2023-02-15T02:55:02;41.45;;;24.40;;
41677;SDS011;27364;49.026;8.712;2023-02-15T02:57:31;33.35;;;23.00;;
41677;SDS011;27364;49.026;8.712;2023-02-15T02:59:58;45.40;;;24.83;;
41677;SDS011;27364;49.026;8.712;2023-02-15T03:02:29;40.03;;;23.58;;
41677;SDS011;27364;49.026;8.712;2023-02-15T03:05:05;44.03;;;24.92;;
41677;SDS011;27364;49.026;8.712;2023-02-15T03:07:33;51.40;;;27.38;;
41677;SDS011;27364;49.026;8.712;2023-02-15T03:10:02;46.95;;;28.70;;
41677;SDS011;27364;49.026;8.712;2023-02-15T03:12:33;45.10;;;27.67;;
41677;SDS011;27364;49.026;8.712;2023-02-15T03:17:31;48.13;;;28.77;;
41677;SDS011;27364;49.026;8.712;2023-02-15T03:19:59;55.50;;;29.10;;
41677;SDS011;27364;49.026;8.712;2023-02-15T03:22:33;44.72;;;29.45;;
41677;SDS011;27364;49.026;8.712;2023-02-15T03:25:09;50.95;;;30.17;;
41677;SDS011;27364;49.026;8.712;2023-02-15T03:27:44;47.38;;;28.20;;
41677;SDS011;27364;49.026;8.712;2023-02-15T03:30:14;53.13;;;29.00;;
41677;SDS011;27364;49.026;8.712;2023-02-15T03:32:43;59.35;;;30.48;;
41677;SDS011;27364;49.026;8.712;2023-02-15T03:35:09;50.08;;;30.73;;
41677;SDS011;27364;49.026;8.712;2023-02-15T03:37:40;46.33;;;30.65;;
41677;SDS011;27364;49.026;8.712;2023-02-15T03:40:34;50.42;;;30.55;;
41677;SDS011;27364;49.026;8.712;2023-02-15T03:45:58;47.10;;;29.67;;
41677;SDS011;27364;49.026;8.712;2023-02-15T03:48:36;52.05;;;31.05;;
41677;SDS011;27364;49.026;8.712;2023-02-15T03:51:07;45.30;;;29.40;;
41677;SDS011;27364;49.026;8.712;2023-02-15T03:53:58;36.45;;;25.77;;
41677;SDS011;27364;49.026;8.712;2023-02-15T03:56:30;35.00;;;24.40;;
41677;SDS011;27364;49.026;8.712;2023-02-15T03:58:59;34.63;;;24.20;;
41677;SDS011;27364;49.026;8.712;2023-02-15T04:01:54;32.95;;;22.10;;
41677;SDS011;27364;49.026;8.712;2023-02-15T04:04:44;33.45;;;23.33;;
41677;SDS011;27364;49.026;8.712;2023-02-15T04:07:11;34.70;;;22.90;;
41677;SDS011;27364;49.026;8.712;2023-02-15T04:09:37;32.92;;;22.88;;
41677;SDS011;27364;49.026;8.712;2023-02-15T04:12:21;35.20;;;22.35;;
41677;SDS011;27364;49.026;8.712;2023-02-15T04:14:47;28.38;;;21.45;;
41677;SDS011;27364;49.026;8.712;2023-02-15T04:17:44;31.88;;;22.50;;
41677;SDS011;27364;49.026;8.712;2023-02-15T04:20:10;33.58;;;21.70;;
41677;SDS011;27364;49.026;8.712;2023-02-15T04:22:54;34.13;;;21.80;;
41677;SDS011;27364;49.026;8.712;2023-02-15T04:25:38;29.33;;;21.55;;
41677;SDS011;27364;49.026;8.712;2023-02-15T04:28:03;28.42;;;21.63;;
41677;SDS011;27364;49.026;8.712;2023-02-15T04:30:29;30.30;;;21.20;;
41677;SDS011;27364;49.026;8.712;2023-02-15T04:32:54;32.17;;;21.48;;
41677;SDS011;27364;49.026;8.712;2023-02-15T04:35:22;32.00;;;22.83;;
41677;SDS011;27364;49.026;8.712;2023-02-15T04:37:47;29.27;;;20.48;;
41677;SDS011;27364;49.026;8.712;2023-02-15T04:40:13;29.77;;;21.02;;
41677;SDS011;27364;49.026;8.712;2023-02-15T04:42:39;31.05;;;20.45;;
41677;SDS011;27364;49.026;8.712;2023-02-15T04:45:05;29.27;;;20.10;;
41677;SDS011;27364;49.026;8.712;2023-02-15T04:47:31;28.40;;;20.48;;
41677;SDS011;27364;49.026;8.712;2023-02-15T04:49:57;24.60;;;18.67;;
41677;SDS011;27364;49.026;8.712;2023-02-15T04:52:22;27.52;;;19.75;;
41677;SDS011;27364;49.026;8.712;2023-02-15T04:54:48;28.75;;;19.80;;
41677;SDS011;27364;49.026;8.712;2023-02-15T04:57:13;33.90;;;19.40;;
41677;SDS011;27364;49.026;8.712;2023-02-15T04:59:39;26.55;;;20.00;;
41677;SDS011;27364;49.026;8.712;2023-02-15T05:02:04;31.20;;;18.98;;
41677;SDS011;27364;49.026;8.712;2023-02-15T05:04:30;26.25;;;19.60;;
41677;SDS011;27364;49.026;8.712;2023-02-15T05:06:57;30.98;;;20.30;;
41677;SDS011;27364;49.026;8.712;2023-02-15T05:09:22;29.52;;;18.23;;
41677;SDS011;27364;49.026;8.712;2023-02-15T05:11:48;28.17;;;19.60;;
41677;SDS011;27364;49.026;8.712;2023-02-15T05:14:13;28.85;;;19.10;;
41677;SDS011;27364;49.026;8.712;2023-02-15T05:16:39;29.95;;;20.05;;
41677;SDS011;27364;49.026;8.712;2023-02-15T05:19:05;28.45;;;19.25;;
41677;SDS011;27364;49.026;8.712;2023-02-15T05:21:31;27.55;;;19.70;;
41677;SDS011;27364;49.026;8.712;2023-02-15T05:23:58;30.20;;;19.48;;
41677;SDS011;27364;49.026;8.712;2023-02-15T05:26:24;30.55;;;19.27;;
41677;SDS011;27364;49.026;8.712;2023-02-15T05:29:09;28.30;;;20.10;;
41677;SDS011;27364;49.026;8.712;2023-02-15T05:31:35;29.13;;;19.98;;
41677;SDS011;27364;49.026;8.712;2023-02-15T05:34:01;26.63;;;19.35;;
41677;SDS011;27364;49.026;8.712;2023-02-15T05:36:27;30.17;;;19.67;;
41677;SDS011;27364;49.026;8.712;2023-02-15T05:38:53;27.75;;;19.92;;
41677;SDS011;27364;49.026;8.712;2023-02-15T05:41:19;32.58;;;19.85;;
41677;SDS011;27364;49.026;8.712;2023-02-15T05:43:44;35.70;;;19.88;;
41677;SDS011;27364;49.026;8.712;2023-02-15T05:46:10;26.70;;;18.70;;
41677;SDS011;27364;49.026;8.712;2023-02-15T05:48:37;33.50;;;19.88;;
41677;SDS011;27364;49.026;8.712;2023-02-15T05:51:04;25.05;;;19.00;;
41677;SDS011;27364;49.026;8.712;2023-02-15T05:53:31;26.55;;;19.30;;
41677;SDS011;27364;49.026;8.712;2023-02-15T05:56:00;25.65;;;18.80;;
41677;SDS011;27364;49.026;8.712;2023-02-15T05:58:27;27.35;;;19.95;;
41677;SDS011;27364;49.026;8.712;2023-02-15T06:03:21;32.78;;;20.25;;
41677;SDS011;27364;49.026;8.712;2023-02-15T06:05:47;39.67;;;20.85;;
41677;SDS011;27364;49.026;8.712;2023-02-15T06:08:12;29.20;;;19.77;;
41677;SDS011;27364;49.026;8.712;2023-02-15T06:10:38;30.70;;;19.38;;
41677;SDS011;27364;49.026;8.712;2023-02-15T06:13:05;46.38;;;19.95;;
41677;SDS011;27364;49.026;8.712;2023-02-15T06:15:31;33.65;;;20.58;;
41677;SDS011;27364;49.026;8.712;2023-02-15T06:17:57;28.83;;;20.27;;
41677;SDS011;27364;49.026;8.712;2023-02-15T06:20:22;29.65;;;20.17;;
41677;SDS011;27364;49.026;8.712;2023-02-15T06:22:48;31.02;;;20.27;;
41677;SDS011;27364;49.026;8.712;2023-02-15T06:25:14;32.67;;;20.83;;
41677;SDS011;27364;49.026;8.712;2023-02-15T06:27:42;29.63;;;21.35;;
41677;SDS011;27364;49.026;8.712;2023-02-15T06:30:09;30.90;;;21.08;;
41677;SDS011;27364;49.026;8.712;2023-02-15T06:32:35;36.22;;;20.33;;
41677;SDS011;27364;49.026;8.712;2023-02-15T06:35:01;32.47;;;20.52;;
41677;SDS011;27364;49.026;8.712;2023-02-15T06:37:26;30.58;;;19.02;;
41677;SDS011;27364;49.026;8.712;2023-02-15T06:39:52;27.90;;;19.45;;
41677;SDS011;27364;49.026;8.712;2023-02-15T06:42:17;32.33;;;19.65;;
41677;SDS011;27364;49.026;8.712;2023-02-15T06:44:43;29.05;;;20.35;;
41677;SDS011;27364;49.026;8.712;2023-02-15T06:47:09;28.60;;;19.40;;
41677;SDS011;27364;49.026;8.712;2023-02-15T06:49:35;27.98;;;19.33;;
41677;SDS011;27364;49.026;8.712;2023-02-15T06:52:01;34.60;;;20.13;;
41677;SDS011;27364;49.026;8.712;2023-02-15T06:54:27;29.38;;;19.85;;
41677;SDS011;27364;49.026;8.712;2023-02-15T06:56:52;33.53;;;19.38;;
41677;SDS011;27364;49.026;8.712;2023-02-15T06:59:18;32.75;;;19.55;;
41677;SDS011;27364;49.026;8.712;2023-02-15T07:01:44;25.48;;;18.73;;
41677;SDS011;27364;49.026;8.712;2023-02-15T07:04:10;36.03;;;20.15;;
41677;SDS011;27364;49.026;8.712;2023-02-15T07:06:36;35.30;;;19.60;;
41677;SDS011;27364;49.026;8.712;2023-02-15T07:09:01;27.55;;;19.30;;
41677;SDS011;27364;49.026;8.712;2023-02-15T07:11:28;29.55;;;19.02;;
41677;SDS011;27364;49.026;8.712;2023-02-15T07:14:12;35.15;;;19.98;;
41677;SDS011;27364;49.026;8.712;2023-02-15T07:16:37;28.83;;;19.58;;
41677;SDS011;27364;49.026;8.712;2023-02-15T07:19:03;27.95;;;19.15;;
41677;SDS011;27364;49.026;8.712;2023-02-15T07:21:28;32.58;;;18.90;;
41677;SDS011;27364;49.026;8.712;2023-02-15T07:23:57;32.30;;;18.73;;
41677;SDS011;27364;49.026;8.712;2023-02-15T07:26:25;39.92;;;18.75;;
41677;SDS011;27364;49.026;8.712;2023-02-15T07:28:51;31.38;;;19.75;;
41677;SDS011;27364;49.026;8.712;2023-02-15T07:31:17;27.15;;;19.50;;
41677;SDS011;27364;49.026;8.712;2023-02-15T07:33:42;30.85;;;21.38;;
41677;SDS011;27364;49.026;8.712;2023-02-15T07:36:08;26.92;;;19.50;;
41677;SDS011;27364;49.026;8.712;2023-02-15T07:38:37;26.45;;;18.77;;
41677;SDS011;27364;49.026;8.712;2023-02-15T07:41:05;28.43;;;20.10;;
41677;SDS011;27364;49.026;8.712;2023-02-15T07:43:33;32.55;;;20.50;;
41677;SDS011;27364;49.026;8.712;2023-02-15T07:46:01;28.77;;;19.45;;
41677;SDS011;27364;49.026;8.712;2023-02-15T07:48:29;27.88;;;19.52;;
41677;SDS011;27364;49.026;8.712;2023-02-15T07:50:59;25.45;;;19.40;;
41677;SDS011;27364;49.026;8.712;2023-02-15T07:53:25;37.38;;;19.65;;
41677;SDS011;27364;49.026;8.712;2023-02-15T07:55:51;34.63;;;18.70;;
41677;SDS011;27364;49.026;8.712;2023-02-15T07:58:18;34.47;;;18.70;;
41677;SDS011;27364;49.026;8.712;2023-02-15T08:00:44;30.95;;;18.50;;
41677;SDS011;27364;49.026;8.712;2023-02-15T08:03:25;36.30;;;20.02;;
41677;SDS011;27364;49.026;8.712;2023-02-15T08:05:55;27.10;;;19.15;;
41677;SDS011;27364;49.026;8.712;2023-02-15T08:08:22;26.75;;;18.40;;
41677;SDS011;27364;49.026;8.712;2023-02-15T08:11:00;31.83;;;18.98;;
41677;SDS011;27364;49.026;8.712;2023-02-15T08:13:49;26.20;;;18.65;;
41677;SDS011;27364;49.026;8.712;2023-02-15T08:18:57;26.25;;;18.55;;
41677;SDS011;27364;49.026;8.712;2023-02-15T08:21:26;23.63;;;17.90;;
41677;SDS011;27364;49.026;8.712;2023-02-15T08:23:54;25.70;;;17.90;;
41677;SDS011;27364;49.026;8.712;2023-02-15T08:26:20;26.75;;;17.27;;
41677;SDS011;27364;49.026;8.712;2023-02-15T08:28:46;27.80;;;18.08;;
41677;SDS011;27364;49.026;8.712;2023-02-15T08:31:13;25.95;;;18.35;;
41677;SDS011;27364;49.026;8.712;2023-02-15T08:33:40;26.17;;;18.35;;
41677;SDS011;27364;49.026;8.712;2023-02-15T08:36:11;27.00;;;17.88;;
41677;SDS011;27364;49.026;8.712;2023-02-15T08:38:38;27.80;;;17.70;;
41677;SDS011;27364;49.026;8.712;2023-02-15T08:43:44;27.58;;;18.55;;
41677;SDS011;27364;49.026;8.712;2023-02-15T08:46:12;26.23;;;17.65;;
41677;SDS011;27364;49.026;8.712;2023-02-15T08:48:39;22.10;;;16.38;;
41677;SDS011;27364;49.026;8.712;2023-02-15T08:51:08;28.40;;;17.25;;
41677;SDS011;27364;49.026;8.712;2023-02-15T08:53:37;25.10;;;16.75;;
41677;SDS011;27364;49.026;8.712;2023-02-15T08:56:04;20.10;;;15.57;;
41677;SDS011;27364;49.026;8.712;2023-02-15T08:58:30;23.13;;;16.77;;
41677;SDS011;27364;49.026;8.712;2023-02-15T09:00:56;23.27;;;17.63;;
41677;SDS011;27364;49.026;8.712;2023-02-15T09:03:22;29.92;;;17.63;;
41677;SDS011;27364;49.026;8.712;2023-02-15T09:05:48;24.17;;;17.20;;
41677;SDS011;27364;49.026;8.712;2023-02-15T09:08:14;25.35;;;17.75;;
41677;SDS011;27364;49.026;8.712;2023-02-15T09:10:39;22.05;;;17.35;;
41677;SDS011;27364;49.026;8.712;2023-02-15T09:13:05;24.10;;;17.02;;
41677;SDS011;27364;49.026;8.712;2023-02-15T09:15:30;23.77;;;17.23;;
41677;SDS011;27364;49.026;8.712;2023-02-15T09:17:56;24.85;;;16.50;;
41677;SDS011;27364;49.026;8.712;2023-02-15T09:20:24;26.40;;;17.00;;
41677;SDS011;27364;49.026;8.712;2023-02-15T09:22:51;24.35;;;17.63;;
41677;SDS011;27364;49.026;8.712;2023-02-15T09:27:43;24.02;;;17.15;;
41677;SDS011;27364;49.026;8.712;2023-02-15T09:30:08;23.23;;;16.60;;
41677;SDS011;27364;49.026;8.712;2023-02-15T09:32:34;23.05;;;16.50;;
41677;SDS011;27364;49.026;8.712;2023-02-15T09:35:00;21.92;;;16.83;;
41677;SDS011;27364;49.026;8.712;2023-02-15T09:37:25;21.90;;;17.02;;
41677;SDS011;27364;49.026;8.712;2023-02-15T09:39:51;24.38;;;17.15;;
41677;SDS011;27364;49.026;8.712;2023-02-15T09:42:24;24.00;;;18.00;;
41677;SDS011;27364;49.026;8.712;2023-02-15T09:56:15;26.33;;;17.15;;
41677;SDS011;27364;49.026;8.712;2023-02-15T09:59:09;23.48;;;17.27;;
41677;SDS011;27364;49.026;8.712;2023-02-15T10:05:04;24.50;;;17.67;;
41677;SDS011;27364;49.026;8.712;2023-02-15T10:07:57;24.33;;;18.00;;
41677;SDS011;27364;49.026;8.712;2023-02-15T10:10:57;23.05;;;17.45;;
41677;SDS011;27364;49.026;8.712;2023-02-15T10:22:53;22.92;;;18.05;;
41677;SDS011;27364;49.026;8.712;2023-02-15T10:28:09;25.42;;;19.77;;
41677;SDS011;27364;49.026;8.712;2023-02-15T10:30:53;25.30;;;18.63;;
41677;SDS011;27364;49.026;8.712;2023-02-15T10:33:40;24.05;;;18.33;;
41677;SDS011;27364;49.026;8.712;2023-02-15T10:42:03;23.27;;;18.52;;
41677;SDS011;27364;49.026;8.712;2023-02-15T11:01:34;24.40;;;19.63;;
41677;SDS011;27364;49.026;8.712;2023-02-15T11:06:51;25.90;;;20.02;;
41677;SDS011;27364;49.026;8.712;2023-02-15T11:09:21;25.52;;;19.55;;
41677;SDS011;27364;49.026;8.712;2023-02-15T11:11:50;27.23;;;22.23;;
41677;SDS011;27364;49.026;8.712;2023-02-15T11:17:02;26.65;;;20.02;;
41677;SDS011;27364;49.026;8.712;2023-02-15T11:19:41;29.67;;;21.10;;
41677;SDS011;27364;49.026;8.712;2023-02-15T11:22:16;30.02;;;20.80;;
41677;SDS011;27364;49.026;8.712;2023-02-15T11:24:44;27.00;;;21.08;;
41677;SDS011;27364;49.026;8.712;2023-02-15T11:27:28;27.58;;;21.63;;
41677;SDS011;27364;49.026;8.712;2023-02-15T11:30:00;27.63;;;21.30;;
41677;SDS011;27364;49.026;8.712;2023-02-15T11:32:36;27.20;;;20.92;;
41677;SDS011;27364;49.026;8.712;2023-02-15T11:40:34;30.38;;;22.85;;
41677;SDS011;27364;49.026;8.712;2023-02-15T11:43:06;28.40;;;21.98;;
41677;SDS011;27364;49.026;8.712;2023-02-15T11:45:40;29.05;;;20.95;;
41677;SDS011;27364;49.026;8.712;2023-02-15T11:48:11;27.13;;;21.13;;
41677;SDS011;27364;49.026;8.712;2023-02-15T11:50:38;26.70;;;21.15;;
41677;SDS011;27364;49.026;8.712;2023-02-15T11:53:06;29.35;;;21.63;;
41677;SDS011;27364;49.026;8.712;2023-02-15T11:55:39;32.97;;;22.58;;
41677;SDS011;27364;49.026;8.712;2023-02-15T11:58:12;30.27;;;21.70;;
41677;SDS011;27364;49.026;8.712;2023-02-15T12:03:44;32.45;;;23.10;;
41677;SDS011;27364;49.026;8.712;2023-02-15T12:06:21;29.55;;;22.40;;
41677;SDS011;27364;49.026;8.712;2023-02-15T12:09:03;30.40;;;22.55;;
41677;SDS011;27364;49.026;8.712;2023-02-15T12:11:35;30.63;;;22.38;;
41677;SDS011;27364;49.026;8.712;2023-02-15T12:14:06;30.55;;;23.42;;
41677;SDS011;27364;49.026;8.712;2023-02-15T12:16:40;28.40;;;22.60;;
41677;SDS011;27364;49.026;8.712;2023-02-15T12:19:21;30.55;;;22.75;;
41677;SDS011;27364;49.026;8.712;2023-02-15T12:21:58;31.10;;;23.08;;
41677;SDS011;27364;49.026;8.712;2023-02-15T12:24:27;29.52;;;23.50;;
41677;SDS011;27364;49.026;8.712;2023-02-15T12:27:18;33.72;;;23.83;;
41677;SDS011;27364;49.026;8.712;2023-02-15T12:29:46;32.78;;;24.13;;
41677;SDS011;27364;49.026;8.712;2023-02-15T12:32:22;32.60;;;24.58;;
41677;SDS011;27364;49.026;8.712;2023-02-15T12:34:55;36.28;;;24.77;;
41677;SDS011;27364;49.026;8.712;2023-02-15T12:37:28;39.65;;;25.40;;
41677;SDS011;27364;49.026;8.712;2023-02-15T12:39:57;35.00;;;25.20;;
41677;SDS011;27364;49.026;8.712;2023-02-15T12:42:24;34.97;;;26.07;;
41677;SDS011;27364;49.026;8.712;2023-02-15T12:47:19;36.67;;;25.65;;
41677;SDS011;27364;49.026;8.712;2023-02-15T12:52:42;34.20;;;24.10;;
41677;SDS011;27364;49.026;8.712;2023-02-15T12:55:21;30.02;;;24.52;;
41677;SDS011;27364;49.026;8.712;2023-02-15T12:57:47;32.25;;;26.02;;
41677;SDS011;27364;49.026;8.712;2023-02-15T13:02:51;30.17;;;24.05;;
41677;SDS011;27364;49.026;8.712;2023-02-15T13:05:20;31.42;;;25.02;;
41677;SDS011;27364;49.026;8.712;2023-02-15T13:07:49;32.28;;;25.05;;
41677;SDS011;27364;49.026;8.712;2023-02-15T13:10:23;30.83;;;24.50;;
41677;SDS011;27364;49.026;8.712;2023-02-15T13:13:01;30.88;;;24.77;;
41677;SDS011;27364;49.026;8.712;2023-02-15T13:15:36;32.38;;;24.15;;
41677;SDS011;27364;49.026;8.712;2023-02-15T13:18:05;30.42;;;25.00;;
41677;SDS011;27364;49.026;8.712;2023-02-15T13:20:37;31.55;;;24.98;;
41677;SDS011;27364;49.026;8.712;2023-02-15T13:23:06;32.42;;;24.63;;
41677;SDS011;27364;49.026;8.712;2023-02-15T13:25:45;34.03;;;25.02;;
41677;SDS011;27364;49.026;8.712;2023-02-15T13:28:15;30.63;;;24.85;;
41677;SDS011;27364;49.026;8.712;2023-02-15T13:36:14;33.17;;;24.88;;
41677;SDS011;27364;49.026;8.712;2023-02-15T13:39:47;27.52;;;22.58;;
41677;SDS011;27364;49.026;8.712;2023-02-15T13:42:02;31.65;;;25.65;;
41677;SDS011;27364;49.026;8.712;2023-02-15T13:44:52;32.67;;;25.05;;
41677;SDS011;27364;49.026;8.712;2023-02-15T13:50:15;30.17;;;25.02;;
41677;SDS011;27364;49.026;8.712;2023-02-15T13:55:53;27.23;;;23.63;;
41677;SDS011;27364;49.026;8.712;2023-02-15T14:04:27;30.48;;;24.02;;
41677;SDS011;27364;49.026;8.712;2023-02-15T14:15:07;29.92;;;22.90;;
41677;SDS011;27364;49.026;8.712;2023-02-15T14:20:29;32.03;;;22.65;;
41677;SDS011;27364;49.026;8.712;2023-02-15T14:23:10;27.13;;;22.98;;
41677;SDS011;27364;49.026;8.712;2023-02-15T14:26:05;27.50;;;21.98;;
41677;SDS011;27364;49.026;8.712;2023-02-15T14:28:51;26.35;;;22.38;;
41677;SDS011;27364;49.026;8.712;2023-02-15T14:31:30;23.98;;;21.35;;
41677;SDS011;27364;49.026;8.712;2023-02-15T14:34:02;25.10;;;22.40;;
41677;SDS011;27364;49.026;8.712;2023-02-15T14:36:28;25.15;;;21.83;;
41677;SDS011;27364;49.026;8.712;2023-02-15T14:38:59;23.73;;;21.20;;
41677;SDS011;27364;49.026;8.712;2023-02-15T14:41:58;25.25;;;22.52;;
41677;SDS011;27364;49.026;8.712;2023-02-15T14:44:38;25.40;;;21.55;;
41677;SDS011;27364;49.026;8.712;2023-02-15T14:47:18;24.70;;;22.10;;
41677;SDS011;27364;49.026;8.712;2023-02-15T14:49:52;25.55;;;22.70;;
41677;SDS011;27364;49.026;8.712;2023-02-15T14:52:18;25.10;;;22.38;;
41677;SDS011;27364;49.026;8.712;2023-02-15T15:02:13;25.10;;;21.30;;
41677;SDS011;27364;49.026;8.712;2023-02-15T15:04:43;24.10;;;21.48;;
41677;SDS011;27364;49.026;8.712;2023-02-15T15:07:22;25.20;;;22.23;;
41677;SDS011;27364;49.026;8.712;2023-02-15T15:09:57;25.40;;;22.70;;
41677;SDS011;27364;49.026;8.712;2023-02-15T15:14:57;24.35;;;20.90;;
41677;SDS011;27364;49.026;8.712;2023-02-15T15:20:10;24.58;;;21.67;;
41677;SDS011;27364;49.026;8.712;2023-02-15T15:22:39;25.35;;;22.65;;
41677;SDS011;27364;49.026;8.712;2023-02-15T15:25:10;26.95;;;22.42;;
41677;SDS011;27364;49.026;8.712;2023-02-15T15:27:56;24.85;;;20.85;;
41677;SDS011;27364;49.026;8.712;2023-02-15T15:32:51;26.42;;;22.30;;
41677;SDS011;27364;49.026;8.712;2023-02-15T15:48:41;25.17;;;22.20;;
41677;SDS011;27364;49.026;8.712;2023-02-15T15:51:27;26.65;;;22.42;;
41677;SDS011;27364;49.026;8.712;2023-02-15T15:53:56;24.27;;;21.67;;
41677;SDS011;27364;49.026;8.712;2023-02-15T15:56:26;29.98;;;21.95;;
41677;SDS011;27364;49.026;8.712;2023-02-15T15:58:57;24.25;;;21.55;;
41677;SDS011;27364;49.026;8.712;2023-02-15T16:01:31;26.58;;;22.50;;
41677;SDS011;27364;49.026;8.712;2023-02-15T16:04:03;24.85;;;21.60;;
41677;SDS011;27364;49.026;8.712;2023-02-15T16:06:36;24.42;;;21.80;;
41677;SDS011;27364;49.026;8.712;2023-02-15T16:11:52;28.27;;;21.95;;
41677;SDS011;27364;49.026;8.712;2023-02-15T16:14:29;25.67;;;22.20;;
41677;SDS011;27364;49.026;8.712;2023-02-15T16:16:58;29.83;;;23.05;;
41677;SDS011;27364;49.026;8.712;2023-02-15T16:21:53;32.33;;;26.90;;
41677;SDS011;27364;49.026;8.712;2023-02-15T16:29:57;28.95;;;24.67;;
41677;SDS011;27364;49.026;8.712;2023-02-15T16:32:24;35.20;;;26.83;;
41677;SDS011;27364;49.026;8.712;2023-02-15T16:34:51;38.25;;;30.75;;
41677;SDS011;27364;49.026;8.712;2023-02-15T16:37:23;38.75;;;31.02;;
41677;SDS011;27364;49.026;8.712;2023-02-15T16:39:51;37.78;;;30.40;;
41677;SDS011;27364;49.026;8.712;2023-02-15T16:42:17;33.33;;;26.05;;
41677;SDS011;27364;49.026;8.712;2023-02-15T16:44:45;29.52;;;24.70;;
41677;SDS011;27364;49.026;8.712;2023-02-15T16:47:20;31.65;;;23.85;;
41677;SDS011;27364;49.026;8.712;2023-02-15T16:49:49;29.40;;;23.70;;
41677;SDS011;27364;49.026;8.712;2023-02-15T16:52:22;30.40;;;23.85;;
41677;SDS011;27364;49.026;8.712;2023-02-15T16:54:56;29.10;;;23.00;;
41677;SDS011;27364;49.026;8.712;2023-02-15T16:57:31;28.60;;;21.63;;
41677;SDS011;27364;49.026;8.712;2023-02-15T17:00:02;26.92;;;21.05;;
41677;SDS011;27364;49.026;8.712;2023-02-15T17:02:32;28.15;;;21.70;;
41677;SDS011;27364;49.026;8.712;2023-02-15T17:05:17;29.88;;;19.88;;
41677;SDS011;27364;49.026;8.712;2023-02-15T17:07:51;30.77;;;22.27;;
41677;SDS011;27364;49.026;8.712;2023-02-15T17:10:36;28.95;;;21.42;;
41677;SDS011;27364;49.026;8.712;2023-02-15T17:13:10;33.08;;;22.75;;
41677;SDS011;27364;49.026;8.712;2023-02-15T17:15:39;30.58;;;24.25;;
41677;SDS011;27364;49.026;8.712;2023-02-15T17:18:10;33.25;;;21.73;;
41677;SDS011;27364;49.026;8.712;2023-02-15T17:20:41;37.13;;;27.35;;
41677;SDS011;27364;49.026;8.712;2023-02-15T17:26:38;27.98;;;21.30;;
41677;SDS011;27364;49.026;8.712;2023-02-15T17:28:59;32.90;;;22.98;;
41677;SDS011;27364;49.026;8.712;2023-02-15T17:31:34;37.75;;;23.38;;
41677;SDS011;27364;49.026;8.712;2023-02-15T17:34:02;27.80;;;20.58;;
41677;SDS011;27364;49.026;8.712;2023-02-15T17:36:29;30.35;;;20.73;;
41677;SDS011;27364;49.026;8.712;2023-02-15T17:39:13;30.58;;;22.23;;
41677;SDS011;27364;49.026;8.712;2023-02-15T17:41:46;29.98;;;21.17;;
41677;SDS011;27364;49.026;8.712;2023-02-15T17:44:12;32.85;;;24.38;;
41677;SDS011;27364;49.026;8.712;2023-02-15T17:46:41;45.72;;;36.50;;
41677;SDS011;27364;49.026;8.712;2023-02-15T17:49:10;41.85;;;32.85;;
41677;SDS011;27364;49.026;8.712;2023-02-15T17:51:43;40.15;;;29.88;;
41677;SDS011;27364;49.026;8.712;2023-02-15T17:54:08;34.67;;;24.60;;